createdAt,value
2023-04-09T00:01:28.571Z,103234.59
2023-04-09T00:04:33.293Z,103233.19
2023-04-09T00:07:38.046Z,103227.50
2023-04-09T00:10:42.931Z,103230.34
2023-04-09T00:13:49.542Z,103224.44
2023-04-09T00:16:54.473Z,103223.19
2023-04-09T00:19:59.288Z,103220.97
2023-04-09T00:23:04.280Z,103217.09
2023-04-09T00:26:12.535Z,103212.97
2023-04-09T00:29:19.289Z,103213.88
2023-04-09T00:32:24.375Z,103216.84
2023-04-09T00:35:29.681Z,103209.91
2023-04-09T00:38:34.783Z,103209.19
2023-04-09T00:41:39.834Z,103211.09
2023-04-09T00:44:46.378Z,103203.38
2023-04-09T00:47:51.448Z,103200.53
2023-04-09T00:50:56.591Z,103206.66
2023-04-09T00:54:01.638Z,103201.16
2023-04-09T00:57:06.856Z,103201.59
2023-04-09T01:00:14.044Z,103203.09
2023-04-09T01:03:19.087Z,103197.22
2023-04-09T01:06:24.212Z,103208.53
2023-04-09T01:09:32.245Z,103200.31
2023-04-09T01:12:44.357Z,103198.97
2023-04-09T01:15:56.109Z,103195.28
2023-04-09T01:19:04.572Z,103196.28
2023-04-09T01:22:15.834Z,103201.25
2023-04-09T01:25:35.165Z,103195.56
2023-04-09T01:28:45.059Z,103194.66
2023-04-09T01:31:51.520Z,103186.91
2023-04-09T01:34:57.201Z,103188.75
2023-04-09T01:38:03.876Z,103181.16
2023-04-09T01:41:10.590Z,103178.06
2023-04-09T01:44:18.210Z,103189.00
2023-04-09T01:47:23.669Z,103187.03
2023-04-09T01:50:28.849Z,103182.25
2023-04-09T01:53:34.371Z,103198.94
2023-04-09T01:56:43.775Z,103197.50
2023-04-09T01:59:51.316Z,103194.97
2023-04-09T02:02:59.202Z,103198.09
2023-04-09T02:06:16.320Z,103193.09
2023-04-09T02:09:22.642Z,103201.44
2023-04-09T02:12:27.937Z,103195.44
2023-04-09T02:15:35.731Z,103201.84
2023-04-09T02:18:40.887Z,103201.53
2023-04-09T02:21:45.960Z,103207.69
2023-04-09T02:24:51.097Z,103197.88
2023-04-09T02:27:56.490Z,103205.66
2023-04-09T02:31:02.750Z,103208.34
2023-04-09T02:34:08.512Z,103204.47
2023-04-09T02:37:14.269Z,103206.50
2023-04-09T02:40:19.184Z,103201.88
2023-04-09T02:43:23.969Z,103204.78
2023-04-09T02:46:30.276Z,103212.91
2023-04-09T02:49:35.046Z,103208.41
2023-04-09T02:52:39.694Z,103202.22
2023-04-09T02:55:44.582Z,103217.56
2023-04-09T02:58:54.083Z,103215.31
2023-04-09T03:02:01.030Z,103206.97
2023-04-09T03:05:06.784Z,103212.75
2023-04-09T03:08:15.136Z,103203.31
2023-04-09T03:11:20.670Z,103210.44
2023-04-09T03:14:25.479Z,103207.66
2023-04-09T03:17:32.200Z,103208.34
2023-04-09T03:20:38.749Z,103203.53
2023-04-09T03:23:47.122Z,103204.19
2023-04-09T03:26:51.873Z,103202.00
2023-04-09T03:29:57.004Z,103211.44
2023-04-09T03:33:09.659Z,103206.84
2023-04-09T03:36:25.522Z,103208.41
2023-04-09T03:39:34.698Z,103211.31
2023-04-09T03:42:40.332Z,103215.25
2023-04-09T03:45:46.206Z,103217.47
2023-04-09T03:49:02.194Z,103214.72
2023-04-09T03:52:15.674Z,103217.75
2023-04-09T03:55:24.552Z,103221.34
2023-04-09T03:58:30.487Z,103226.84
2023-04-09T04:01:36.692Z,103221.94
2023-04-09T04:04:43.232Z,103211.72
2023-04-09T04:07:49.187Z,103213.53
2023-04-09T04:11:04.758Z,103214.34
2023-04-09T04:14:11.576Z,103225.53
2023-04-09T04:17:21.228Z,103218.78
2023-04-09T04:20:29.553Z,103224.41
2023-04-09T04:23:42.532Z,103214.44
2023-04-09T04:27:01.888Z,103217.63
2023-04-09T04:30:12.575Z,103226.03
2023-04-09T04:33:30.874Z,103211.72
2023-04-09T04:36:38.932Z,103213.97
2023-04-09T04:39:46.192Z,103211.97
2023-04-09T04:42:54.225Z,103209.97
2023-04-09T04:45:59.725Z,103216.94
2023-04-09T04:49:07.594Z,103215.06
2023-04-09T04:52:21.389Z,103213.16
2023-04-09T04:55:30.460Z,103214.72
2023-04-09T04:58:38.789Z,103210.13
2023-04-09T05:01:44.219Z,103208.16
2023-04-09T05:04:51.691Z,103215.19
2023-04-09T05:08:02.401Z,103225.13
2023-04-09T05:11:07.596Z,103228.47
2023-04-09T05:14:16.381Z,103218.25
2023-04-09T05:17:21.793Z,103218.66
2023-04-09T05:20:28.597Z,103212.25
2023-04-09T05:23:45.629Z,103210.56
2023-04-09T05:26:50.784Z,103214.94
2023-04-09T05:29:56.041Z,103214.50
2023-04-09T05:33:01.150Z,103214.91
2023-04-09T05:36:07.823Z,103206.47
2023-04-09T05:39:15.125Z,103208.69
2023-04-09T05:42:21.073Z,103221.19
2023-04-09T05:45:30.821Z,103228.72
2023-04-09T05:48:37.628Z,103223.66
2023-04-09T05:51:45.031Z,103213.25
2023-04-09T05:54:51.658Z,103209.91
2023-04-09T05:58:02.675Z,103214.81
2023-04-09T06:01:08.182Z,103208.66
2023-04-09T06:04:13.417Z,103207.38
2023-04-09T06:07:18.978Z,103204.44
2023-04-09T06:10:26.610Z,103215.34
2023-04-09T06:13:31.686Z,103216.34
2023-04-09T06:16:36.839Z,103214.03
2023-04-09T06:19:42.208Z,103219.28
2023-04-09T06:22:47.250Z,103223.53
2023-04-09T06:25:53.604Z,103217.34
2023-04-09T06:28:58.699Z,103225.38
2023-04-09T06:32:04.308Z,103221.16
2023-04-09T06:35:11.813Z,103233.06
2023-04-09T06:38:16.886Z,103226.97
2023-04-09T06:41:24.384Z,103228.69
2023-04-09T06:44:29.409Z,103230.34
2023-04-09T06:47:34.426Z,103224.84
2023-04-09T06:50:39.550Z,103224.72
2023-04-09T06:53:44.713Z,103234.63
2023-04-09T06:56:51.986Z,103226.06
2023-04-09T06:59:56.999Z,103227.69
2023-04-09T07:03:02.456Z,103236.72
2023-04-09T07:06:08.070Z,103240.03
2023-04-09T07:09:13.377Z,103243.53
2023-04-09T07:12:29.601Z,103245.50
2023-04-09T07:15:35.114Z,103242.88
2023-04-09T07:18:40.302Z,103235.84
2023-04-09T07:21:45.413Z,103232.16
2023-04-09T07:24:54.402Z,103228.34
2023-04-09T07:28:02.002Z,103228.38
2023-04-09T07:31:07.977Z,103236.59
2023-04-09T07:34:13.666Z,103225.38
2023-04-09T07:37:18.687Z,103221.00
2023-04-09T07:40:23.787Z,103229.25
2023-04-09T07:43:30.302Z,103220.84
2023-04-09T07:46:35.737Z,103214.22
2023-04-09T07:49:42.169Z,103217.97
2023-04-09T07:52:47.393Z,103207.91
2023-04-09T07:55:53.066Z,103218.28
2023-04-09T07:58:59.605Z,103228.63
2023-04-09T08:02:04.782Z,103226.81
2023-04-09T08:05:10.882Z,103221.22
2023-04-09T08:08:17.178Z,103235.88
2023-04-09T08:11:25.358Z,103235.09
2023-04-09T08:14:31.817Z,103221.03
2023-04-09T08:17:37.567Z,103231.69
2023-04-09T08:20:45.481Z,103228.88
2023-04-09T08:23:51.275Z,103230.09
2023-04-09T08:26:56.683Z,103221.84
2023-04-09T08:30:03.989Z,103215.81
2023-04-09T08:33:09.685Z,103220.09
2023-04-09T08:36:14.867Z,103216.88
2023-04-09T08:39:20.821Z,103213.44
2023-04-09T08:42:27.281Z,103208.16
2023-04-09T08:45:33.901Z,103214.00
2023-04-09T08:48:39.374Z,103204.69
2023-04-09T08:51:47.926Z,103221.25
2023-04-09T08:54:53.364Z,103219.56
2023-04-09T08:57:59.369Z,103215.59
2023-04-09T09:01:06.024Z,103215.63
2023-04-09T09:04:12.355Z,103211.34
2023-04-09T09:07:17.868Z,103209.06
2023-04-09T09:10:22.994Z,103203.94
2023-04-09T09:13:28.805Z,103212.56
2023-04-09T09:16:40.010Z,103201.66
2023-04-09T09:19:47.556Z,103198.56
2023-04-09T09:22:55.026Z,103198.84
2023-04-09T09:26:00.757Z,103201.63
2023-04-09T09:29:08.384Z,103194.16
2023-04-09T09:32:17.080Z,103192.69
2023-04-09T09:35:22.433Z,103180.88
2023-04-09T09:38:27.458Z,103184.38
2023-04-09T09:41:32.949Z,103187.06
2023-04-09T09:44:38.099Z,103178.63
2023-04-09T09:47:44.676Z,103177.59
2023-04-09T09:50:51.516Z,103184.88
2023-04-09T09:53:58.264Z,103177.16
2023-04-09T09:57:07.527Z,103180.81
2023-04-09T10:00:14.604Z,103172.72
2023-04-09T10:03:26.721Z,103168.34
2023-04-09T10:06:34.204Z,103171.00
2023-04-09T10:09:40.042Z,103179.63
2023-04-09T10:12:45.565Z,103168.41
2023-04-09T10:15:51.377Z,103164.16
2023-04-09T10:18:58.356Z,103164.66
2023-04-09T10:22:07.054Z,103164.84
2023-04-09T10:25:12.498Z,103166.09
2023-04-09T10:28:18.853Z,103149.94
2023-04-09T10:31:25.365Z,103142.31
2023-04-09T10:34:33.384Z,103143.97
2023-04-09T10:37:38.485Z,103142.41
2023-04-09T10:40:44.237Z,103140.88
2023-04-09T10:43:49.697Z,103140.53
2023-04-09T10:46:56.447Z,103141.69
2023-04-09T10:50:17.361Z,103132.91
2023-04-09T10:53:26.472Z,103137.16
2023-04-09T10:56:31.526Z,103139.03
2023-04-09T10:59:36.685Z,103136.69
2023-04-09T11:03:25.153Z,103140.28
2023-04-09T11:06:32.209Z,103137.94
2023-04-09T11:09:37.475Z,103133.66
2023-04-09T11:12:43.099Z,103136.22
2023-04-09T11:15:48.294Z,103135.19
2023-04-09T11:18:56.190Z,103138.00
2023-04-09T11:22:04.894Z,103135.75
2023-04-09T11:25:10.913Z,103139.13
2023-04-09T11:28:16.367Z,103138.28
2023-04-09T11:31:21.362Z,103137.63
2023-04-09T11:34:29.938Z,103136.06
2023-04-09T11:37:38.617Z,103126.00
2023-04-09T11:40:48.516Z,103119.34
2023-04-09T11:43:54.325Z,103123.38
2023-04-09T11:46:59.776Z,103116.47
2023-04-09T11:50:05.224Z,103119.75
2023-04-09T11:53:22.381Z,103124.06
2023-04-09T11:56:45.178Z,103122.50
2023-04-09T11:59:50.293Z,103120.19
2023-04-09T12:03:02.627Z,103116.97
2023-04-09T12:06:09.314Z,103112.66
2023-04-09T12:09:16.328Z,103108.50
2023-04-09T12:12:21.654Z,103111.91
2023-04-09T12:15:27.236Z,103108.66
2023-04-09T12:18:32.442Z,103106.03
2023-04-09T12:21:48.533Z,103114.81
2023-04-09T12:24:55.147Z,103112.25
2023-04-09T12:28:03.596Z,103102.91
2023-04-09T12:31:12.045Z,103108.75
2023-04-09T12:34:17.046Z,103110.44
2023-04-09T12:37:22.773Z,103109.44
2023-04-09T12:40:29.354Z,103107.75
2023-04-09T12:43:34.580Z,103106.88
2023-04-09T12:46:39.586Z,103104.25
2023-04-09T12:49:46.737Z,103102.59
2023-04-09T12:52:51.840Z,103105.06
2023-04-09T12:56:01.614Z,103102.47
2023-04-09T12:59:07.066Z,103095.53
2023-04-09T13:02:12.977Z,103099.75
2023-04-09T13:05:18.267Z,103104.91
2023-04-09T13:08:23.358Z,103104.03
2023-04-09T13:11:29.867Z,103103.09
2023-04-09T13:14:34.946Z,103104.00
2023-04-09T13:17:40.089Z,103087.03
2023-04-09T13:20:45.316Z,103087.09
2023-04-09T13:23:50.613Z,103077.59
2023-04-09T13:26:57.059Z,103088.81
2023-04-09T13:30:02.083Z,103071.03
2023-04-09T13:33:07.471Z,103077.78
2023-04-09T13:36:13.986Z,103077.69
2023-04-09T13:39:19.050Z,103087.81
2023-04-09T13:42:25.853Z,103088.69
2023-04-09T13:45:31.437Z,103079.31
2023-04-09T13:48:36.413Z,103082.03
2023-04-09T13:51:42.276Z,103075.25
2023-04-09T13:54:47.321Z,103066.78
2023-04-09T13:57:53.867Z,103074.56
2023-04-09T14:00:59.855Z,103068.84
2023-04-09T14:04:06.371Z,103060.25
2023-04-09T14:07:11.681Z,103065.34
2023-04-09T14:10:17.073Z,103057.59
2023-04-09T14:13:23.476Z,103052.50
2023-04-09T14:16:30.475Z,103055.91
2023-04-09T14:19:35.489Z,103061.00
2023-04-09T14:22:41.479Z,103052.38
2023-04-09T14:25:46.811Z,103055.66
2023-04-09T14:28:53.506Z,103060.69
2023-04-09T14:31:59.000Z,103053.03
2023-04-09T14:35:04.217Z,103052.91
2023-04-09T14:38:11.276Z,103053.75
2023-04-09T14:41:18.561Z,103053.72
2023-04-09T14:44:26.175Z,103049.38
2023-04-09T14:47:32.631Z,103049.38
2023-04-09T14:50:37.944Z,103048.53
2023-04-09T14:53:43.150Z,103037.44
2023-04-09T14:56:48.314Z,103048.66
2023-04-09T14:59:54.846Z,103052.03
2023-04-09T15:03:01.430Z,103054.63
2023-04-09T15:06:07.251Z,103046.84
2023-04-09T15:09:12.685Z,103039.13
2023-04-09T15:12:17.765Z,103047.34
2023-04-09T15:15:24.454Z,103048.97
2023-04-09T15:18:31.452Z,103061.69
2023-04-09T15:21:36.435Z,103048.06
2023-04-09T15:24:41.648Z,103065.75
2023-04-09T15:27:47.328Z,103054.56
2023-04-09T15:30:54.280Z,103057.00
2023-04-09T15:33:59.549Z,103050.91
2023-04-09T15:37:05.067Z,103051.75
2023-04-09T15:40:11.124Z,103057.66
2023-04-09T15:43:17.340Z,103055.94
2023-04-09T15:46:23.800Z,103059.22
2023-04-09T15:49:29.321Z,103062.59
2023-04-09T15:52:34.301Z,103060.72
2023-04-09T15:55:39.325Z,103064.91
2023-04-09T15:58:44.321Z,103064.91
2023-04-09T16:01:51.247Z,103072.56
2023-04-09T16:04:56.432Z,103070.81
2023-04-09T16:08:02.186Z,103078.50
2023-04-09T16:11:08.607Z,103077.81
2023-04-09T16:14:14.615Z,103079.56
2023-04-09T16:17:21.322Z,103084.72
2023-04-09T16:20:26.549Z,103082.19
2023-04-09T16:23:33.019Z,103080.44
2023-04-09T16:26:38.182Z,103076.19
2023-04-09T16:29:43.901Z,103091.50
2023-04-09T16:32:50.448Z,103088.97
2023-04-09T16:35:55.685Z,103087.25
2023-04-09T16:39:00.886Z,103080.28
2023-04-09T16:42:06.001Z,103083.66
2023-04-09T16:45:11.844Z,103086.94
2023-04-09T16:48:18.276Z,103086.56
2023-04-09T16:51:23.418Z,103083.09
2023-04-09T16:54:28.457Z,103090.50
2023-04-09T16:57:33.779Z,103084.31
2023-04-09T17:00:40.080Z,103098.53
2023-04-09T17:03:46.698Z,103094.88
2023-04-09T17:06:52.710Z,103104.97
2023-04-09T17:09:58.072Z,103099.63
2023-04-09T17:13:04.259Z,103107.03
2023-04-09T17:16:11.450Z,103100.94
2023-04-09T17:19:18.105Z,103103.19
2023-04-09T17:22:23.490Z,103111.34
2023-04-09T17:25:28.615Z,103102.78
2023-04-09T17:28:33.989Z,103108.69
2023-04-09T17:31:39.740Z,103103.75
2023-04-09T17:34:49.461Z,103109.88
2023-04-09T17:37:54.873Z,103106.34
2023-04-09T17:40:59.980Z,103108.63
2023-04-09T17:44:04.857Z,103116.19
2023-04-09T17:47:12.919Z,103106.94
2023-04-09T17:50:19.105Z,103113.34
2023-04-09T17:53:23.845Z,103123.16
2023-04-09T17:56:28.854Z,103125.91
2023-04-09T17:59:34.312Z,103130.19
2023-04-09T18:02:39.214Z,103130.56
2023-04-09T18:05:46.525Z,103131.19
2023-04-09T18:08:52.459Z,103133.66
2023-04-09T18:11:57.891Z,103137.50
2023-04-09T18:15:04.009Z,103132.06
2023-04-09T18:18:10.645Z,103133.72
2023-04-09T18:21:17.905Z,103134.88
2023-04-09T18:24:22.644Z,103135.22
2023-04-09T18:27:27.559Z,103137.75
2023-04-09T18:30:36.128Z,103131.25
2023-04-09T18:33:41.326Z,103136.91
2023-04-09T18:36:47.470Z,103137.59
2023-04-09T18:39:52.167Z,103137.59
2023-04-09T18:42:56.877Z,103127.78
2023-04-09T18:46:01.675Z,103151.91
2023-04-09T18:49:06.368Z,103147.50
2023-04-09T18:52:14.414Z,103148.47
2023-04-09T18:55:19.328Z,103153.25
2023-04-09T18:58:24.116Z,103151.44
2023-04-09T19:01:28.874Z,103153.78
2023-04-09T19:04:36.498Z,103157.69
2023-04-09T19:07:43.458Z,103162.91
2023-04-09T19:10:48.950Z,103159.84
2023-04-09T19:13:53.681Z,103159.41
2023-04-09T19:16:58.822Z,103158.50
2023-04-09T19:20:04.463Z,103162.50
2023-04-09T19:23:10.887Z,103163.47
2023-04-09T19:26:15.751Z,103159.25
2023-04-09T19:29:21.266Z,103163.47
2023-04-09T19:32:26.184Z,103155.59
2023-04-09T19:35:33.278Z,103159.53
2023-04-09T19:38:39.417Z,103160.66
2023-04-09T19:41:44.288Z,103159.53
2023-04-09T19:44:48.990Z,103160.97
2023-04-09T19:47:55.507Z,103161.78
2023-04-09T19:51:00.727Z,103168.69
2023-04-09T19:54:07.220Z,103166.03
2023-04-09T19:57:11.922Z,103162.63
2023-04-09T20:00:16.645Z,103170.25
2023-04-09T20:03:22.474Z,103159.38
2023-04-09T20:06:29.012Z,103165.91
2023-04-09T20:09:41.257Z,103163.97
2023-04-09T20:12:47.789Z,103162.41
2023-04-09T20:15:52.476Z,103159.59
2023-04-09T20:18:57.441Z,103167.94
2023-04-09T20:22:02.261Z,103168.13
2023-04-09T20:25:08.956Z,103169.63
2023-04-09T20:28:14.085Z,103178.13
2023-04-09T20:31:18.779Z,103174.50
2023-04-09T20:34:26.865Z,103184.44
2023-04-09T20:37:31.783Z,103166.72
2023-04-09T20:40:38.086Z,103185.31
2023-04-09T20:43:42.835Z,103179.31
2023-04-09T20:46:47.530Z,103168.22
2023-04-09T20:49:53.183Z,103180.56
2023-04-09T20:52:58.570Z,103184.94
2023-04-09T20:56:05.136Z,103180.56
2023-04-09T20:59:09.868Z,103164.81
2023-04-09T21:02:14.918Z,103169.75
2023-04-09T21:05:23.894Z,103166.34
2023-04-09T21:08:29.140Z,103174.28
2023-04-09T21:11:35.356Z,103180.22
2023-04-09T21:14:40.077Z,103175.81
2023-04-09T21:17:44.875Z,103181.28
2023-04-09T21:20:49.952Z,103165.59
2023-04-09T21:23:55.000Z,103174.75
2023-04-09T21:27:02.742Z,103170.31
2023-04-09T21:30:08.027Z,103158.63
2023-04-09T21:33:12.997Z,103162.94
2023-04-09T21:36:17.856Z,103155.69
2023-04-09T21:39:22.859Z,103154.03
2023-04-09T21:42:31.547Z,103164.50
2023-04-09T21:45:36.682Z,103161.91
2023-04-09T21:48:41.443Z,103156.84
2023-04-09T21:51:46.456Z,103163.28
2023-04-09T21:54:51.129Z,103156.31
2023-04-09T21:57:57.222Z,103152.38
2023-04-09T22:01:02.264Z,103155.84
2023-04-09T22:04:07.030Z,103163.91
2023-04-09T22:07:12.058Z,103153.38
2023-04-09T22:10:16.841Z,103154.19
2023-04-09T22:13:22.985Z,103151.41
2023-04-09T22:16:27.864Z,103148.47
2023-04-09T22:19:32.779Z,103149.19
2023-04-09T22:22:38.205Z,103148.19
2023-04-09T22:25:42.954Z,103153.38
2023-04-09T22:28:48.966Z,103153.25
2023-04-09T22:31:53.649Z,103158.19
2023-04-09T22:34:58.343Z,103145.31
2023-04-09T22:38:03.366Z,103165.00
2023-04-09T22:41:08.349Z,103153.84
2023-04-09T22:44:15.705Z,103156.28
2023-04-09T22:47:21.198Z,103153.25
2023-04-09T22:50:27.887Z,103153.94
2023-04-09T22:53:32.731Z,103156.78
2023-04-09T22:56:37.813Z,103149.94
2023-04-09T22:59:44.189Z,103155.06
2023-04-09T23:02:50.937Z,103157.19
2023-04-09T23:05:55.834Z,103146.44
2023-04-09T23:09:00.551Z,103156.50
2023-04-09T23:12:06.462Z,103158.91
2023-04-09T23:15:14.287Z,103156.09
2023-04-09T23:18:19.330Z,103156.09
2023-04-09T23:21:24.127Z,103153.56
2023-04-09T23:24:28.951Z,103154.00
2023-04-09T23:27:35.075Z,103152.84
2023-04-09T23:30:41.171Z,103151.03
2023-04-09T23:33:46.105Z,103144.13
2023-04-09T23:36:51.737Z,103159.91
2023-04-09T23:39:56.567Z,103148.50
2023-04-09T23:43:02.528Z,103147.78
2023-04-09T23:46:08.934Z,103145.13
2023-04-09T23:49:13.972Z,103141.53
2023-04-09T23:52:18.887Z,103145.19
2023-04-09T23:55:24.050Z,103151.47
2023-04-09T23:58:28.890Z,103149.75
